createdAt,value
2017-06-26T00:01:45.349Z,75.80
2017-06-26T00:04:13.643Z,76.10
2017-06-26T00:06:41.203Z,76.10
2017-06-26T00:09:08.734Z,76.30
2017-06-26T00:11:48.686Z,76.30
2017-06-26T00:14:41.507Z,76.90
2017-06-26T00:17:09.058Z,76.50
2017-06-26T00:19:43.867Z,76.80
2017-06-26T00:22:36.986Z,76.90
2017-06-26T00:25:29.845Z,77.20
2017-06-26T00:27:58.173Z,77.30
2017-06-26T00:30:26.694Z,77.30
2017-06-26T00:33:18.698Z,77.60
2017-06-26T00:35:46.218Z,77.60
2017-06-26T00:38:21.933Z,77.90
2017-06-26T00:40:49.513Z,77.90
2017-06-26T00:43:29.857Z,77.70
2017-06-26T00:45:57.369Z,77.60
2017-06-26T00:48:31.106Z,77.90
2017-06-26T00:50:58.683Z,77.90
2017-06-26T00:53:55.471Z,78.40
2017-06-26T00:56:27.093Z,78.20
2017-06-26T00:58:55.403Z,79.00
2017-06-26T01:01:38.953Z,78.90
2017-06-26T01:04:06.501Z,79.30
2017-06-26T01:06:59.635Z,79.50
2017-06-26T01:09:27.165Z,79.30
2017-06-26T01:12:19.073Z,79.20
2017-06-26T01:14:46.608Z,79.10
2017-06-26T01:17:31.781Z,79.30
2017-06-26T01:19:59.294Z,79.70
2017-06-26T01:22:37.710Z,80.10
2017-06-26T01:25:06.003Z,80.30
2017-06-26T01:27:47.738Z,80.30
2017-06-26T01:30:15.262Z,80.00
2017-06-26T01:33:00.774Z,80.10
2017-06-26T01:35:28.298Z,80.40
2017-06-26T01:38:02.598Z,80.60
2017-06-26T01:40:30.118Z,80.90
2017-06-26T01:45:45.922Z,81.10
2017-06-26T01:48:33.434Z,81.60
2017-06-26T01:53:59.377Z,82.10
2017-06-26T01:56:26.909Z,82.50
2017-06-26T01:59:07.239Z,82.40
2017-06-26T02:01:34.797Z,82.30
2017-06-26T02:04:22.635Z,82.20
2017-06-26T02:06:50.978Z,82.90
2017-06-26T02:09:38.645Z,82.70
2017-06-26T02:12:06.933Z,83.90
2017-06-26T02:14:53.798Z,83.40
2017-06-26T02:17:21.341Z,83.40
2017-06-26T02:20:08.271Z,83.30
2017-06-26T02:22:35.790Z,82.90
2017-06-26T02:25:21.201Z,82.90
2017-06-26T02:28:13.542Z,82.80
2017-06-26T02:30:41.090Z,83.00
2017-06-26T02:33:29.282Z,83.50
2017-06-26T02:35:56.826Z,83.50
2017-06-26T02:38:30.034Z,83.60
2017-06-26T02:40:57.577Z,84.40
2017-06-26T02:43:42.950Z,84.00
2017-06-26T02:46:10.480Z,84.30
2017-06-26T02:49:03.553Z,84.40
2017-06-26T02:51:58.778Z,84.30
2017-06-26T02:54:26.301Z,84.90
2017-06-26T02:57:10.581Z,85.40
2017-06-26T02:59:38.101Z,85.60
2017-06-26T03:02:13.203Z,85.60
2017-06-26T03:04:40.731Z,85.90
2017-06-26T03:07:31.025Z,86.20
2017-06-26T03:09:58.549Z,86.40
2017-06-26T03:12:40.781Z,86.70
2017-06-26T03:15:08.297Z,87.20
2017-06-26T03:17:43.923Z,87.70
2017-06-26T03:20:11.535Z,87.60
2017-06-26T03:22:39.074Z,88.20
2017-06-26T03:25:15.612Z,88.20
2017-06-26T03:27:43.125Z,88.50
2017-06-26T03:30:30.562Z,88.60
2017-06-26T03:32:58.084Z,88.40
2017-06-26T03:35:45.642Z,88.30
2017-06-26T03:38:13.162Z,88.30
2017-06-26T03:41:04.214Z,88.50
2017-06-26T03:43:31.738Z,88.50
2017-06-26T03:45:59.298Z,88.60
2017-06-26T03:48:39.302Z,88.50
2017-06-26T03:51:06.847Z,88.40
2017-06-26T03:53:49.373Z,88.00
2017-06-26T03:56:17.005Z,88.20
2017-06-26T03:59:02.743Z,87.30
2017-06-26T04:01:31.037Z,86.50
2017-06-26T04:04:16.555Z,86.10
2017-06-26T04:06:44.107Z,85.40
2017-06-26T04:09:24.508Z,85.20
2017-06-26T04:11:52.045Z,85.10
2017-06-26T04:14:26.583Z,84.70
2017-06-26T04:19:41.148Z,83.70
2017-06-26T04:22:21.917Z,84.00
2017-06-26T04:24:49.454Z,83.80
2017-06-26T04:27:16.987Z,83.90
2017-06-26T04:30:02.514Z,83.80
2017-06-26T04:32:30.106Z,83.80
2017-06-26T04:35:17.906Z,84.20
2017-06-26T04:37:45.458Z,84.00
2017-06-26T04:40:38.222Z,84.00
2017-06-26T04:43:05.774Z,82.20
2017-06-26T04:45:51.974Z,81.90
2017-06-26T04:48:19.516Z,81.30
2017-06-26T04:50:59.174Z,80.30
2017-06-26T04:53:26.741Z,79.20
2017-06-26T04:56:08.549Z,79.20
2017-06-26T04:58:36.181Z,78.90
2017-06-26T05:01:21.457Z,79.00
2017-06-26T05:03:49.109Z,78.30
2017-06-26T05:06:30.589Z,78.00
2017-06-26T05:08:58.129Z,77.00
2017-06-26T05:11:35.685Z,76.20
2017-06-26T05:14:03.259Z,76.40
2017-06-26T05:16:50.985Z,76.00
2017-06-26T05:19:18.609Z,76.40
2017-06-26T05:22:03.792Z,76.20
2017-06-26T05:24:31.539Z,75.30
2017-06-26T05:27:04.902Z,74.70
2017-06-26T05:29:32.496Z,73.30
2017-06-26T05:32:12.519Z,73.50
2017-06-26T05:34:40.214Z,73.50
2017-06-26T05:37:24.367Z,72.80
2017-06-26T05:39:52.020Z,71.50
2017-06-26T05:42:33.622Z,72.20
2017-06-26T05:45:01.185Z,72.20
2017-06-26T05:47:40.125Z,73.00
2017-06-26T05:50:07.657Z,73.40
2017-06-26T05:52:52.754Z,73.90
2017-06-26T05:55:20.303Z,74.50
2017-06-26T05:58:02.197Z,74.10
2017-06-26T06:00:29.721Z,74.50
2017-06-26T06:03:03.453Z,74.40
2017-06-26T06:05:31.009Z,73.80
2017-06-26T06:08:08.237Z,72.30
2017-06-26T06:10:35.769Z,73.20
2017-06-26T06:13:23.357Z,72.80
2017-06-26T06:15:50.955Z,72.50
2017-06-26T06:18:33.669Z,72.50
2017-06-26T06:21:01.185Z,71.80
2017-06-26T06:23:37.104Z,71.60
2017-06-26T06:26:04.738Z,71.20
2017-06-26T06:28:46.030Z,71.40
2017-06-26T06:33:59.395Z,69.60
2017-06-26T06:36:51.610Z,70.10
2017-06-26T06:39:19.162Z,70.40
2017-06-26T06:41:56.172Z,70.10
2017-06-26T06:44:23.807Z,69.50
2017-06-26T06:47:00.774Z,68.90
2017-06-26T06:49:28.329Z,67.70
2017-06-26T06:52:20.154Z,67.00
2017-06-26T06:54:47.715Z,67.30
2017-06-26T06:57:29.214Z,66.00
2017-06-26T06:59:56.773Z,67.30
2017-06-26T07:02:32.474Z,64.70
2017-06-26T07:05:00.810Z,64.60
2017-06-26T07:07:45.161Z,64.60
2017-06-26T07:10:12.809Z,63.60
2017-06-26T07:12:57.092Z,62.90
2017-06-26T07:15:24.733Z,62.40
2017-06-26T07:18:00.613Z,62.90
2017-06-26T07:20:28.256Z,62.80
2017-06-26T07:23:15.679Z,62.50
2017-06-26T07:25:43.224Z,61.60
2017-06-26T07:28:27.984Z,61.80
2017-06-26T07:30:55.548Z,60.50
2017-06-26T07:33:42.350Z,59.20
2017-06-26T07:36:09.908Z,60.10
2017-06-26T07:38:58.070Z,60.30
2017-06-26T07:41:25.720Z,60.70
2017-06-26T07:44:05.542Z,59.30
2017-06-26T07:46:33.105Z,59.90
2017-06-26T07:49:17.366Z,58.10
2017-06-26T07:51:44.913Z,58.40
2017-06-26T07:54:24.714Z,57.50
2017-06-26T07:59:44.970Z,56.50
2017-06-26T08:02:24.794Z,55.00
2017-06-26T08:04:52.351Z,54.10
2017-06-26T08:07:36.243Z,53.10
2017-06-26T08:10:03.797Z,52.80
2017-06-26T08:12:50.818Z,53.00
2017-06-26T08:15:18.359Z,53.00
2017-06-26T08:17:46.859Z,51.70
2017-06-26T08:20:14.387Z,50.70
2017-06-26T08:23:01.579Z,49.30
2017-06-26T08:25:29.097Z,50.00
2017-06-26T08:30:30.134Z,51.30
2017-06-26T08:33:23.443Z,50.90
2017-06-26T08:35:51.002Z,49.40
2017-06-26T08:38:31.824Z,49.70
2017-06-26T08:40:59.386Z,49.40
2017-06-26T08:43:33.774Z,48.70
2017-06-26T08:46:01.328Z,49.80
2017-06-26T08:48:47.470Z,49.20
2017-06-26T08:51:15.067Z,49.40
2017-06-26T08:54:07.810Z,50.20
2017-06-26T08:56:35.351Z,50.70
2017-06-26T08:59:22.128Z,51.10
2017-06-26T09:02:17.210Z,51.40
2017-06-26T09:04:44.778Z,50.20
2017-06-26T09:07:24.697Z,51.10
2017-06-26T09:09:52.362Z,50.60
2017-06-26T09:15:12.953Z,49.90
2017-06-26T09:17:58.973Z,50.50
2017-06-26T09:20:54.470Z,48.20
2017-06-26T09:23:22.113Z,48.50
2017-06-26T09:26:05.569Z,48.20
2017-06-26T09:28:33.216Z,47.00
2017-06-26T09:31:04.973Z,47.60
2017-06-26T09:33:32.653Z,48.40
2017-06-26T09:36:13.103Z,48.10
2017-06-26T09:38:40.860Z,48.10
2017-06-26T09:43:55.100Z,48.10
2017-06-26T09:46:40.813Z,47.30
2017-06-26T09:49:08.476Z,46.40
2017-06-26T09:54:44.999Z,46.90
2017-06-26T09:57:12.546Z,46.70
2017-06-26T10:00:00.678Z,46.80
2017-06-26T10:02:28.239Z,46.70
2017-06-26T10:05:10.757Z,46.30
2017-06-26T10:07:38.500Z,45.50
2017-06-26T10:10:17.747Z,44.70
2017-06-26T10:12:45.397Z,45.00
2017-06-26T10:15:26.681Z,44.90
2017-06-26T10:17:54.235Z,44.80
2017-06-26T10:20:36.085Z,45.50
2017-06-26T10:23:03.649Z,43.90
2017-06-26T10:25:49.585Z,43.40
2017-06-26T10:28:17.145Z,44.30
2017-06-26T10:30:55.283Z,44.70
2017-06-26T10:33:22.833Z,43.50
2017-06-26T10:36:06.443Z,44.50
2017-06-26T10:38:34.170Z,44.10
2017-06-26T10:41:30.065Z,44.60
2017-06-26T10:44:01.074Z,44.20
2017-06-26T10:46:28.642Z,44.10
2017-06-26T10:49:15.646Z,43.70
2017-06-26T10:51:43.211Z,43.00
2017-06-26T10:54:23.223Z,43.50
2017-06-26T10:56:51.534Z,41.30
2017-06-26T10:59:27.517Z,41.20
2017-06-26T11:02:18.506Z,41.30
2017-06-26T11:04:46.074Z,40.70
2017-06-26T11:07:31.046Z,40.10
2017-06-26T11:09:58.687Z,40.30
2017-06-26T11:12:44.437Z,40.70
2017-06-26T11:15:12.034Z,40.00
2017-06-26T11:17:48.199Z,38.80
2017-06-26T11:20:15.741Z,38.60
2017-06-26T11:22:54.347Z,37.30
2017-06-26T11:28:07.117Z,36.70
2017-06-26T11:30:56.017Z,36.00
2017-06-26T11:33:23.573Z,35.50
2017-06-26T11:35:59.032Z,34.50
2017-06-26T11:38:52.650Z,30.50
2017-06-26T11:41:20.174Z,30.40
2017-06-26T11:43:58.811Z,30.60
2017-06-26T11:46:26.386Z,29.70
2017-06-26T11:49:13.323Z,29.10
2017-06-26T11:51:40.846Z,29.20
2017-06-26T11:56:54.538Z,28.20
2017-06-26T11:59:38.670Z,27.20
2017-06-26T12:02:06.226Z,27.00
2017-06-26T12:04:44.546Z,26.90
2017-06-26T12:07:12.102Z,27.00
2017-06-26T12:09:59.946Z,25.50
2017-06-26T12:12:27.580Z,25.10
2017-06-26T12:15:09.621Z,25.30
2017-06-26T12:17:37.149Z,25.20
2017-06-26T12:20:17.413Z,26.00
2017-06-26T12:22:44.939Z,26.10
2017-06-26T12:25:22.613Z,25.80
2017-06-26T12:27:50.137Z,26.10
2017-06-26T12:30:36.257Z,25.10
2017-06-26T12:33:04.544Z,25.90
2017-06-26T12:35:44.888Z,25.10
2017-06-26T12:38:12.417Z,25.00
2017-06-26T12:40:53.143Z,25.30
2017-06-26T12:43:20.706Z,24.20
2017-06-26T12:46:05.193Z,24.30
2017-06-26T12:48:32.740Z,24.60
2017-06-26T12:51:12.854Z,24.20
2017-06-26T12:53:40.378Z,24.10
2017-06-26T12:56:33.734Z,24.00
2017-06-26T12:59:01.268Z,23.20
2017-06-26T13:01:43.574Z,23.30
2017-06-26T13:04:11.094Z,23.30
2017-06-26T13:07:01.050Z,24.20
2017-06-26T13:09:28.571Z,23.70
2017-06-26T13:12:08.921Z,22.80
2017-06-26T13:14:36.445Z,22.80
2017-06-26T13:17:17.389Z,22.50
2017-06-26T13:22:38.405Z,23.20
2017-06-26T13:25:14.877Z,23.30
2017-06-26T13:27:42.551Z,23.10
2017-06-26T13:30:17.081Z,22.50
2017-06-26T13:32:44.657Z,22.80
2017-06-26T13:35:34.613Z,23.30
2017-06-26T13:38:02.261Z,23.20
2017-06-26T13:40:37.302Z,22.80
2017-06-26T13:43:04.826Z,22.70
2017-06-26T13:45:32.806Z,23.30
2017-06-26T13:48:00.342Z,23.30
2017-06-26T13:50:40.284Z,22.70
2017-06-26T13:53:08.574Z,22.50
2017-06-26T13:55:42.326Z,22.10
2017-06-26T13:58:09.846Z,22.00
2017-06-26T14:00:47.018Z,22.60
2017-06-26T14:03:15.306Z,23.60
2017-06-26T14:05:52.070Z,23.50
2017-06-26T14:08:20.370Z,23.80
2017-06-26T14:11:13.170Z,23.70
2017-06-26T14:13:40.697Z,23.80
2017-06-26T14:16:22.531Z,24.00
2017-06-26T14:18:50.054Z,22.90
2017-06-26T14:21:24.468Z,23.30
2017-06-26T14:23:52.021Z,23.20
2017-06-26T14:26:32.581Z,23.90
2017-06-26T14:29:00.169Z,23.10
2017-06-26T14:31:48.805Z,23.40
2017-06-26T14:34:16.353Z,22.80
2017-06-26T14:37:07.300Z,22.90
2017-06-26T14:39:34.845Z,22.80
2017-06-26T14:42:11.849Z,22.90
2017-06-26T14:44:39.390Z,22.40
2017-06-26T14:47:22.401Z,23.00
2017-06-26T14:49:49.942Z,22.20
2017-06-26T14:52:28.504Z,22.50
2017-06-26T14:54:56.058Z,22.90
2017-06-26T14:57:33.088Z,22.80
2017-06-26T15:00:00.647Z,22.60
2017-06-26T15:02:39.328Z,23.20
2017-06-26T15:05:06.870Z,22.40
2017-06-26T15:07:42.422Z,23.00
2017-06-26T15:10:09.965Z,22.60
2017-06-26T15:12:44.991Z,22.60
2017-06-26T15:15:36.805Z,23.40
2017-06-26T15:18:04.329Z,23.00
2017-06-26T15:20:45.244Z,22.70
2017-06-26T15:23:12.775Z,22.60
2017-06-26T15:25:50.679Z,23.50
2017-06-26T15:28:18.244Z,23.10
2017-06-26T15:31:38.997Z,24.10
2017-06-26T15:34:06.744Z,24.10
2017-06-26T15:36:52.761Z,24.40
2017-06-26T15:42:14.387Z,23.50
2017-06-26T15:44:51.983Z,23.50
2017-06-26T15:47:19.839Z,23.90
2017-06-26T15:49:56.422Z,23.80
2017-06-26T15:52:23.969Z,23.70
2017-06-26T15:54:51.492Z,23.60
2017-06-26T15:57:19.043Z,23.70
2017-06-26T15:59:47.362Z,24.80
2017-06-26T16:02:15.026Z,24.80
2017-06-26T16:04:42.570Z,24.70
2017-06-26T16:07:10.134Z,24.20
2017-06-26T16:09:37.702Z,23.00
2017-06-26T16:12:05.248Z,23.50
2017-06-26T16:14:33.012Z,23.60
2017-06-26T16:17:01.416Z,23.90
2017-06-26T16:19:29.049Z,24.20
2017-06-26T16:21:56.614Z,24.70
2017-06-26T16:24:24.135Z,24.30
2017-06-26T16:26:52.902Z,25.00
2017-06-26T16:29:20.425Z,25.00
2017-06-26T16:31:48.054Z,25.00
2017-06-26T16:34:15.581Z,26.20
2017-06-26T16:36:43.201Z,26.50
2017-06-26T16:39:10.745Z,27.40
2017-06-26T16:41:38.415Z,28.20
2017-06-26T16:44:05.945Z,28.90
2017-06-26T16:46:33.474Z,29.50
2017-06-26T16:49:01.801Z,30.70
2017-06-26T16:51:29.471Z,30.60
2017-06-26T16:53:57.130Z,31.80
2017-06-26T16:56:24.651Z,31.60
2017-06-26T16:58:52.968Z,33.20
2017-06-26T17:01:20.536Z,33.20
2017-06-26T17:03:48.063Z,32.90
2017-06-26T17:06:15.656Z,33.10
2017-06-26T17:08:43.210Z,35.00
2017-06-26T17:11:10.734Z,34.10
2017-06-26T17:13:38.331Z,34.60
2017-06-26T17:16:05.844Z,35.70
2017-06-26T17:18:34.164Z,35.10
2017-06-26T17:21:01.694Z,35.10
2017-06-26T17:23:29.230Z,35.00
2017-06-26T17:25:57.551Z,35.80
2017-06-26T17:28:25.117Z,35.70
2017-06-26T17:30:52.682Z,34.30
2017-06-26T17:33:20.338Z,35.00
2017-06-26T17:35:47.858Z,35.50
2017-06-26T17:38:16.173Z,35.30
2017-06-26T17:40:43.725Z,35.20
2017-06-26T17:43:11.254Z,35.80
2017-06-26T17:45:39.577Z,36.30
2017-06-26T17:48:28.659Z,36.30
2017-06-26T17:50:56.180Z,36.40
2017-06-26T17:53:37.726Z,37.50
2017-06-26T17:56:05.343Z,37.30
2017-06-26T17:58:38.608Z,37.30
2017-06-26T18:06:53.815Z,37.20
2017-06-26T18:09:29.714Z,37.60
2017-06-26T18:11:57.294Z,37.80
2017-06-26T18:14:47.410Z,38.10
2017-06-26T18:20:01.835Z,38.60
2017-06-26T18:22:54.006Z,38.70
2017-06-26T18:25:21.731Z,38.90
2017-06-26T18:27:55.067Z,40.70
2017-06-26T18:30:22.602Z,40.10
2017-06-26T18:32:56.870Z,40.80
2017-06-26T18:35:25.195Z,40.90
2017-06-26T18:37:56.234Z,40.90
2017-06-26T18:40:42.315Z,40.50
2017-06-26T18:43:10.182Z,41.20
2017-06-26T18:45:37.945Z,41.50
2017-06-26T18:48:05.811Z,42.70
2017-06-26T18:50:39.576Z,43.20
2017-06-26T18:53:07.145Z,44.50
2017-06-26T18:55:50.339Z,44.20
2017-06-26T18:58:17.884Z,44.10
2017-06-26T19:01:01.914Z,46.10
2017-06-26T19:03:29.467Z,47.40
2017-06-26T19:06:11.562Z,46.70
2017-06-26T19:08:39.122Z,46.70
2017-06-26T19:11:17.620Z,46.50
2017-06-26T19:13:45.166Z,47.00
2017-06-26T19:16:27.230Z,47.60
2017-06-26T19:18:54.780Z,47.50
2017-06-26T19:21:28.868Z,48.30
2017-06-26T19:24:21.978Z,48.80
2017-06-26T19:26:50.349Z,50.30
2017-06-26T19:29:34.703Z,49.80
2017-06-26T19:32:02.225Z,50.10
2017-06-26T19:34:38.232Z,50.50
2017-06-26T19:37:05.895Z,50.70
2017-06-26T19:40:01.494Z,51.20
2017-06-26T19:42:36.282Z,51.50
2017-06-26T19:47:56.595Z,52.30
2017-06-26T19:50:35.417Z,52.30
2017-06-26T19:53:02.967Z,52.40
2017-06-26T19:55:46.511Z,52.80
2017-06-26T19:58:14.064Z,53.10
2017-06-26T20:00:51.051Z,53.40
2017-06-26T20:03:18.572Z,53.40
2017-06-26T20:05:55.323Z,53.50
2017-06-26T20:08:22.949Z,53.60
2017-06-26T20:11:05.450Z,54.10
2017-06-26T20:13:33.222Z,55.10
2017-06-26T20:16:17.502Z,54.80
2017-06-26T20:18:45.226Z,54.80
2017-06-26T20:21:19.057Z,55.30
2017-06-26T20:24:12.422Z,55.30
2017-06-26T20:26:39.998Z,55.50
2017-06-26T20:29:14.330Z,55.90
2017-06-26T20:31:42.157Z,56.20
2017-06-26T20:34:25.809Z,56.40
2017-06-26T20:36:53.382Z,56.90
2017-06-26T20:39:40.509Z,57.30
2017-06-26T20:42:08.085Z,57.60
2017-06-26T20:44:51.443Z,57.90
2017-06-26T20:47:18.993Z,58.20
2017-06-26T20:49:57.737Z,58.70
2017-06-26T20:52:25.365Z,58.90
2017-06-26T20:55:03.637Z,59.60
2017-06-26T20:57:31.210Z,59.90
2017-06-26T21:00:04.469Z,60.10
2017-06-26T21:02:32.039Z,60.30
2017-06-26T21:05:02.336Z,60.80
2017-06-26T21:07:51.868Z,61.20
2017-06-26T21:13:06.682Z,61.60
2017-06-26T21:15:39.370Z,62.20
2017-06-26T21:18:06.929Z,62.60
2017-06-26T21:20:50.607Z,63.00
2017-06-26T21:23:18.145Z,64.00
2017-06-26T21:25:51.918Z,64.20
2017-06-26T21:28:45.029Z,64.60
2017-06-26T21:31:12.550Z,65.10
2017-06-26T21:33:40.078Z,65.30
2017-06-26T21:36:07.625Z,65.20
2017-06-26T21:38:35.223Z,65.50
2017-06-26T21:41:02.749Z,65.70
2017-06-26T21:43:31.066Z,66.50
2017-06-26T21:45:58.586Z,66.40
2017-06-26T21:48:26.895Z,67.10
2017-06-26T21:50:54.558Z,67.10
2017-06-26T21:53:22.125Z,67.60
2017-06-26T21:55:49.686Z,67.90
2017-06-26T21:58:17.241Z,67.70
2017-06-26T22:00:44.763Z,68.40
2017-06-26T22:03:13.083Z,69.40
2017-06-26T22:05:40.628Z,69.30
2017-06-26T22:08:08.197Z,69.50
2017-06-26T22:10:35.720Z,69.30
2017-06-26T22:13:04.029Z,69.20
2017-06-26T22:15:31.541Z,69.20
2017-06-26T22:17:59.824Z,70.60
2017-06-26T22:20:28.143Z,69.90
2017-06-26T22:22:55.701Z,69.90
2017-06-26T22:25:23.216Z,68.30
2017-06-26T22:27:51.519Z,67.70
2017-06-26T22:30:19.097Z,67.60
2017-06-26T22:32:46.658Z,67.10
2017-06-26T22:35:14.192Z,67.30
2017-06-26T22:37:41.718Z,67.10
2017-06-26T22:40:09.436Z,66.80
2017-06-26T22:42:36.998Z,66.30
2017-06-26T22:45:04.558Z,65.50
2017-06-26T22:47:32.114Z,65.20
2017-06-26T22:49:59.677Z,65.70
2017-06-26T22:52:27.201Z,65.60
2017-06-26T22:54:55.518Z,66.10
2017-06-26T22:57:23.174Z,65.90
2017-06-26T22:59:50.694Z,66.00
2017-06-26T23:02:18.982Z,66.50
2017-06-26T23:04:46.525Z,66.50
2017-06-26T23:07:14.857Z,67.40
2017-06-26T23:09:42.381Z,67.10
2017-06-26T23:12:09.975Z,68.10
2017-06-26T23:14:37.626Z,72.10
2017-06-26T23:17:05.189Z,73.40
2017-06-26T23:19:33.069Z,74.70
2017-06-26T23:22:00.585Z,75.30
2017-06-26T23:24:28.992Z,76.50
2017-06-26T23:26:56.554Z,76.40
2017-06-26T23:29:24.072Z,76.80
2017-06-26T23:31:52.395Z,76.50
2017-06-26T23:34:20.052Z,76.50
2017-06-26T23:36:47.717Z,76.60
2017-06-26T23:39:15.236Z,76.90
2017-06-26T23:41:43.554Z,77.60
2017-06-26T23:44:11.078Z,77.60
2017-06-26T23:46:38.622Z,76.90
2017-06-26T23:49:06.949Z,76.50
2017-06-26T23:51:34.470Z,76.40
2017-06-26T23:54:02.758Z,77.20
2017-06-26T23:56:30.302Z,77.20
2017-06-26T23:58:58.593Z,76.90
